createdAt,value
2022-10-01T00:00:05.828Z,99.99
2022-10-01T00:01:05.838Z,99.99
2022-10-01T00:02:05.820Z,99.99
2022-10-01T00:03:05.875Z,99.99
2022-10-01T00:04:05.693Z,99.99
2022-10-01T00:05:05.651Z,99.99
2022-10-01T00:06:05.616Z,99.99
2022-10-01T00:07:05.579Z,99.99
2022-10-01T00:08:05.546Z,99.99
2022-10-01T00:09:05.565Z,99.99
2022-10-01T00:10:05.484Z,99.99
2022-10-01T00:11:05.448Z,99.99
2022-10-01T00:12:05.407Z,99.99
2022-10-01T00:13:05.483Z,99.99
2022-10-01T00:14:05.392Z,99.99
2022-10-01T00:15:06.242Z,99.99
2022-10-01T00:16:05.294Z,99.99
2022-10-01T00:17:05.226Z,99.99
2022-10-01T00:18:05.232Z,99.99
2022-10-01T00:19:05.209Z,99.99
2022-10-01T00:20:10.725Z,99.99
2022-10-01T00:21:05.081Z,99.99
2022-10-01T00:22:05.061Z,99.99
2022-10-01T00:23:05.015Z,99.99
2022-10-01T00:24:05.037Z,99.99
2022-10-01T00:25:04.941Z,99.99
2022-10-01T00:26:04.980Z,99.99
2022-10-01T00:27:04.869Z,99.99
2022-10-01T00:28:04.904Z,99.99
2022-10-01T00:29:04.807Z,99.99
2022-10-01T00:30:04.778Z,99.99
2022-10-01T00:31:04.771Z,99.99
2022-10-01T00:32:04.806Z,99.99
2022-10-01T00:33:04.710Z,99.99
2022-10-01T00:34:04.622Z,99.99
2022-10-01T00:35:04.584Z,99.99
2022-10-01T00:36:04.615Z,99.99
2022-10-01T00:37:04.576Z,99.99
2022-10-01T00:38:04.503Z,99.99
2022-10-01T00:39:04.441Z,99.99
2022-10-01T00:40:04.414Z,99.99
2022-10-01T00:41:04.375Z,99.99
2022-10-01T00:42:04.347Z,99.99
2022-10-01T00:43:04.354Z,99.99
2022-10-01T00:44:04.269Z,99.99
2022-10-01T00:45:04.233Z,99.99
2022-10-01T00:46:04.308Z,99.99
2022-10-01T00:47:04.159Z,99.99
2022-10-01T00:48:04.126Z,99.99
2022-10-01T00:49:04.093Z,99.99
2022-10-01T00:50:04.107Z,99.99
2022-10-01T00:51:04.021Z,99.99
2022-10-01T00:52:03.984Z,99.99
2022-10-01T00:53:03.970Z,99.99
2022-10-01T00:54:03.917Z,99.99
2022-10-01T00:55:03.936Z,99.99
2022-10-01T00:56:03.846Z,99.99
2022-10-01T00:57:03.807Z,99.99
2022-10-01T00:58:03.779Z,99.99
2022-10-01T00:59:03.733Z,99.99
2022-10-01T01:00:03.703Z,99.99
2022-10-01T01:01:03.794Z,99.99
2022-10-01T01:02:03.664Z,99.99
2022-10-01T01:03:03.611Z,99.99
2022-10-01T01:04:03.561Z,99.99
2022-10-01T01:05:03.532Z,99.99
2022-10-01T01:06:03.499Z,99.99
2022-10-01T01:07:03.507Z,99.99
2022-10-01T01:08:03.422Z,99.99
2022-10-01T01:09:03.385Z,99.99
2022-10-01T01:10:03.348Z,99.99
2022-10-01T01:11:03.308Z,99.99
2022-10-01T01:12:03.273Z,99.99
2022-10-01T01:13:03.289Z,99.99
2022-10-01T01:14:03.210Z,99.99
2022-10-01T01:15:03.170Z,99.99
2022-10-01T01:16:03.190Z,99.99
2022-10-01T01:17:03.157Z,99.99
2022-10-01T01:18:03.065Z,99.99
2022-10-01T01:19:03.025Z,99.99
2022-10-01T01:20:02.990Z,99.99
2022-10-01T01:21:03.739Z,99.99
2022-10-01T01:22:02.921Z,99.99
2022-10-01T01:23:02.948Z,99.99
2022-10-01T01:24:02.851Z,99.99
2022-10-01T01:25:02.813Z,99.99
2022-10-01T01:26:02.779Z,99.99
2022-10-01T01:27:02.741Z,99.99
2022-10-01T01:28:02.749Z,99.99
2022-10-01T01:29:02.749Z,99.99
2022-10-01T01:30:02.637Z,99.99
2022-10-01T01:31:02.622Z,99.99
2022-10-01T01:32:02.627Z,99.99
2022-10-01T01:33:02.526Z,99.99
2022-10-01T01:34:02.495Z,99.99
2022-10-01T01:35:02.469Z,99.99
2022-10-01T01:36:02.427Z,99.99
2022-10-01T01:37:02.389Z,99.99
2022-10-01T01:38:02.411Z,99.99
2022-10-01T01:39:02.319Z,99.99
2022-10-01T01:40:02.364Z,99.99
2022-10-01T01:41:02.255Z,99.99
2022-10-01T01:42:02.212Z,99.99
2022-10-01T01:43:02.236Z,99.99
2022-10-01T01:44:02.146Z,99.99
2022-10-01T01:45:02.109Z,99.99
2022-10-01T01:46:02.150Z,99.99
2022-10-01T01:47:02.034Z,99.99
2022-10-01T01:48:02.000Z,99.99
2022-10-01T01:49:02.020Z,99.99
2022-10-01T01:50:01.936Z,99.99
2022-10-01T01:51:02.748Z,99.99
2022-10-01T01:52:01.860Z,99.99
2022-10-01T01:53:01.828Z,99.99
2022-10-01T01:54:01.787Z,99.99
2022-10-01T01:55:01.814Z,99.99
2022-10-01T01:56:01.715Z,99.99
2022-10-01T01:57:01.680Z,99.99
2022-10-01T01:58:01.708Z,99.99
2022-10-01T01:59:01.685Z,99.99
2022-10-01T02:00:01.637Z,99.99
2022-10-01T02:01:01.537Z,99.99
2022-10-01T02:02:01.668Z,99.99
2022-10-01T02:03:01.561Z,99.99
2022-10-01T02:04:01.438Z,99.99
2022-10-01T02:05:01.399Z,99.99
2022-10-01T02:06:01.363Z,99.99
2022-10-01T02:07:01.329Z,99.99
2022-10-01T02:08:10.285Z,99.99
2022-10-01T02:09:01.258Z,99.99
2022-10-01T02:10:01.255Z,99.99
2022-10-01T02:11:01.187Z,99.99
2022-10-01T02:12:01.161Z,99.99
2022-10-01T02:13:01.123Z,99.99
2022-10-01T02:14:01.152Z,99.99
2022-10-01T02:15:01.050Z,99.99
2022-10-01T02:16:01.074Z,99.99
2022-10-01T02:17:00.976Z,99.99
2022-10-01T02:18:00.942Z,99.99
2022-10-01T02:19:00.911Z,99.99
2022-10-01T02:20:00.918Z,99.99
2022-10-01T02:21:00.895Z,99.99
2022-10-01T02:22:00.799Z,99.99
2022-10-01T02:23:00.773Z,99.99
2022-10-01T02:24:00.732Z,99.99
2022-10-01T02:25:00.694Z,99.99
2022-10-01T02:26:00.663Z,99.99
2022-10-01T02:27:00.696Z,99.99
2022-10-01T02:28:00.623Z,99.99
2022-10-01T02:29:00.550Z,99.99
2022-10-01T02:30:00.523Z,99.99
2022-10-01T02:31:00.518Z,99.99
2022-10-01T02:32:00.444Z,99.99
2022-10-01T02:33:00.482Z,99.99
2022-10-01T02:34:00.377Z,99.99
2022-10-01T02:35:00.354Z,99.99
2022-10-01T02:36:00.308Z,99.99
2022-10-01T02:37:00.280Z,99.99
2022-10-01T02:38:00.237Z,99.99
2022-10-01T02:39:00.294Z,99.99
2022-10-01T02:40:00.197Z,99.99
2022-10-01T02:41:00.134Z,99.99
2022-10-01T02:42:00.106Z,99.99
2022-10-01T02:43:00.074Z,99.99
2022-10-01T02:44:00.097Z,99.99
2022-10-01T02:44:59.988Z,99.99
2022-10-01T02:46:00.026Z,99.99
2022-10-01T02:46:59.927Z,99.99
2022-10-01T02:47:59.886Z,99.99
2022-10-01T02:48:59.925Z,99.99
2022-10-01T02:49:59.816Z,99.99
2022-10-01T02:50:59.787Z,99.99
2022-10-01T02:51:59.747Z,99.99
2022-10-01T02:52:59.714Z,99.99
2022-10-01T02:53:59.673Z,99.99
2022-10-01T02:54:59.694Z,99.99
2022-10-01T02:55:59.612Z,99.99
2022-10-01T02:56:59.571Z,99.99
2022-10-01T02:57:59.535Z,99.99
2022-10-01T02:58:59.497Z,99.99
2022-10-01T02:59:59.530Z,99.99
2022-10-01T03:00:59.430Z,99.99
2022-10-01T03:01:59.556Z,99.99
2022-10-01T03:02:59.579Z,99.99
2022-10-01T03:03:59.325Z,99.99
2022-10-01T03:04:59.418Z,99.99
2022-10-01T03:05:59.274Z,99.99
2022-10-01T03:06:59.303Z,99.99
2022-10-01T03:07:59.241Z,99.99
2022-10-01T03:08:59.177Z,99.99
2022-10-01T03:10:02.182Z,99.99
2022-10-01T03:10:59.089Z,99.99
2022-10-01T03:11:59.168Z,99.99
2022-10-01T03:12:59.016Z,99.99
2022-10-01T03:13:58.975Z,99.99
2022-10-01T03:14:59.036Z,99.99
2022-10-01T03:15:58.971Z,99.99
2022-10-01T03:16:58.890Z,99.99
2022-10-01T03:17:58.911Z,99.99
2022-10-01T03:18:58.865Z,99.99
2022-10-01T03:19:58.796Z,99.99
2022-10-01T03:20:59.249Z,99.99
2022-10-01T03:21:58.728Z,99.99
2022-10-01T03:22:58.755Z,99.99
2022-10-01T03:23:58.636Z,99.99
2022-10-01T03:24:58.707Z,99.99
2022-10-01T03:25:58.555Z,99.99
2022-10-01T03:26:58.633Z,99.99
2022-10-01T03:27:58.565Z,99.99
2022-10-01T03:28:58.450Z,99.99
2022-10-01T03:29:58.424Z,99.99
2022-10-01T03:30:58.485Z,99.99
2022-10-01T03:31:58.552Z,99.99
2022-10-01T03:32:58.376Z,99.99
2022-10-01T03:33:58.320Z,99.99
2022-10-01T03:34:58.347Z,99.99
2022-10-01T03:35:58.311Z,99.99
2022-10-01T03:36:58.234Z,99.99
2022-10-01T03:37:58.140Z,99.99
2022-10-01T03:38:58.212Z,99.99
2022-10-01T03:39:58.169Z,99.99
2022-10-01T03:40:58.042Z,99.99
2022-10-01T03:41:58.003Z,99.99
2022-10-01T03:42:58.086Z,99.99
2022-10-01T03:44:00.518Z,99.99
2022-10-01T03:44:57.910Z,99.99
2022-10-01T03:45:57.895Z,99.99
2022-10-01T03:46:57.871Z,99.99
2022-10-01T03:47:57.956Z,99.99
2022-10-01T03:49:02.695Z,99.99
2022-10-01T03:50:04.202Z,99.99
2022-10-01T03:51:00.186Z,99.99
2022-10-01T03:51:57.665Z,99.99
2022-10-01T03:53:01.201Z,99.99
2022-10-01T03:53:57.682Z,99.99
2022-10-01T03:54:58.687Z,99.99
2022-10-01T03:55:57.551Z,99.99
2022-10-01T03:56:57.510Z,99.99
2022-10-01T03:57:57.507Z,99.99
2022-10-01T03:58:57.415Z,99.99
2022-10-01T03:59:57.379Z,99.99
2022-10-01T04:00:57.346Z,99.99
2022-10-01T04:01:57.422Z,99.99
2022-10-01T04:02:57.414Z,99.99
2022-10-01T04:03:57.239Z,99.99
2022-10-01T04:04:57.694Z,99.99
2022-10-01T04:05:57.229Z,99.99
2022-10-01T04:06:57.142Z,99.99
2022-10-01T04:07:57.213Z,99.99
2022-10-01T04:08:57.119Z,99.99
2022-10-01T04:09:57.098Z,99.99
2022-10-01T04:10:57.004Z,99.99
2022-10-01T04:11:56.970Z,99.99
2022-10-01T04:12:57.025Z,99.99
2022-10-01T04:13:56.932Z,99.99
2022-10-01T04:14:56.859Z,99.99
2022-10-01T04:15:56.930Z,99.99
2022-10-01T04:16:56.841Z,99.99
2022-10-01T04:17:56.843Z,99.99
2022-10-01T04:18:56.719Z,99.99
2022-10-01T04:19:56.686Z,99.99
2022-10-01T04:20:56.709Z,99.99
2022-10-01T04:21:56.699Z,99.99
2022-10-01T04:22:56.584Z,99.99
2022-10-01T04:23:56.548Z,99.99
2022-10-01T04:24:57.192Z,99.99
2022-10-01T04:25:56.536Z,99.99
2022-10-01T04:26:56.458Z,99.99
2022-10-01T04:27:56.475Z,99.99
2022-10-01T04:28:56.383Z,99.99
2022-10-01T04:29:56.336Z,99.99
2022-10-01T04:30:56.381Z,99.99
2022-10-01T04:31:56.461Z,99.99
2022-10-01T04:32:56.312Z,99.99
2022-10-01T04:33:56.335Z,99.99
2022-10-01T04:34:56.174Z,99.99
2022-10-01T04:35:56.139Z,99.99
2022-10-01T04:36:56.159Z,99.99
2022-10-01T04:37:56.062Z,99.99
2022-10-01T04:39:00.836Z,99.99
2022-10-01T04:39:56.085Z,99.99
2022-10-01T04:40:56.042Z,99.99
2022-10-01T04:41:59.696Z,99.99
2022-10-01T04:42:56.007Z,99.99
2022-10-01T04:43:55.882Z,99.99
2022-10-01T04:44:57.696Z,99.99
2022-10-01T04:45:55.927Z,99.99
2022-10-01T04:46:55.932Z,99.99
2022-10-01T04:47:55.739Z,99.99
2022-10-01T04:48:55.715Z,99.99
2022-10-01T04:49:55.648Z,99.99
2022-10-01T04:50:55.611Z,99.99
2022-10-01T04:51:55.679Z,99.99
2022-10-01T04:52:55.547Z,99.99
2022-10-01T04:53:55.610Z,99.99
2022-10-01T04:54:55.500Z,99.99
2022-10-01T04:55:55.483Z,99.99
2022-10-01T04:56:55.492Z,99.99
2022-10-01T04:57:55.365Z,99.99
2022-10-01T04:58:55.332Z,99.99
2022-10-01T04:59:55.297Z,99.99
2022-10-01T05:00:58.503Z,99.99
2022-10-01T05:01:55.260Z,99.99
2022-10-01T05:02:55.290Z,99.99
2022-10-01T05:03:55.160Z,99.99
2022-10-01T05:04:55.141Z,99.99
2022-10-01T05:05:55.096Z,99.99
2022-10-01T05:06:55.062Z,99.99
2022-10-01T05:07:55.026Z,99.99
2022-10-01T05:08:55.051Z,99.99
2022-10-01T05:09:54.959Z,99.99
2022-10-01T05:10:54.971Z,99.99
2022-10-01T05:11:54.885Z,99.99
2022-10-01T05:12:54.861Z,99.99
2022-10-01T05:13:54.899Z,99.99
2022-10-01T05:14:54.786Z,99.99
2022-10-01T05:15:54.771Z,99.99
2022-10-01T05:16:54.724Z,99.99
2022-10-01T05:17:54.684Z,99.99
2022-10-01T05:18:54.699Z,99.99
2022-10-01T05:19:54.618Z,99.99
2022-10-01T05:20:54.609Z,99.99
2022-10-01T05:21:54.543Z,99.99
2022-10-01T05:22:54.594Z,99.99
2022-10-01T05:23:54.534Z,99.99
2022-10-01T05:24:54.452Z,99.99
2022-10-01T05:25:54.409Z,99.99
2022-10-01T05:26:54.393Z,99.99
2022-10-01T05:27:54.360Z,99.99
2022-10-01T05:28:54.308Z,99.99
2022-10-01T05:29:54.348Z,99.99
2022-10-01T05:30:54.226Z,99.99
2022-10-01T05:31:54.228Z,99.99
2022-10-01T05:32:54.171Z,99.99
2022-10-01T05:33:54.136Z,99.99
2022-10-01T05:34:54.095Z,99.99
2022-10-01T05:35:54.137Z,99.99
2022-10-01T05:36:54.025Z,99.99
2022-10-01T05:37:53.990Z,99.99
2022-10-01T05:38:53.952Z,99.99
2022-10-01T05:39:53.925Z,99.67
2022-10-01T05:40:53.961Z,99.83
2022-10-01T05:41:53.858Z,99.99
2022-10-01T05:42:53.824Z,99.99
2022-10-01T05:43:53.796Z,99.83
2022-10-01T05:44:53.753Z,99.52
2022-10-01T05:45:53.757Z,99.21
2022-10-01T05:46:53.734Z,99.38
2022-10-01T05:47:53.648Z,99.27
2022-10-01T05:48:53.610Z,99.27
2022-10-01T05:49:53.577Z,98.96
2022-10-01T05:50:53.545Z,98.96
2022-10-01T05:51:53.584Z,98.71
2022-10-01T05:52:53.483Z,97.89
2022-10-01T05:53:53.440Z,98.10
2022-10-01T05:54:53.411Z,98.35
2022-10-01T05:55:53.371Z,98.10
2022-10-01T05:56:53.404Z,97.79
2022-10-01T05:57:53.308Z,97.89
2022-10-01T05:58:53.273Z,97.79
2022-10-01T05:59:53.236Z,97.89
2022-10-01T06:00:53.207Z,97.99
2022-10-01T06:01:53.294Z,97.99
2022-10-01T06:02:53.298Z,97.99
2022-10-01T06:03:53.155Z,97.48
2022-10-01T06:04:53.072Z,97.48
2022-10-01T06:05:53.038Z,96.87
2022-10-01T06:06:53.006Z,97.28
2022-10-01T06:07:53.021Z,96.97
2022-10-01T06:08:52.939Z,97.23
2022-10-01T06:09:52.902Z,96.92
2022-10-01T06:10:52.866Z,97.03
2022-10-01T06:11:52.885Z,96.62
2022-10-01T06:12:52.798Z,97.03
2022-10-01T06:13:52.828Z,96.51
2022-10-01T06:14:52.731Z,96.82
2022-10-01T06:15:52.694Z,96.31
2022-10-01T06:16:52.739Z,96.67
2022-10-01T06:17:52.630Z,95.79
2022-10-01T06:18:52.613Z,96.57
2022-10-01T06:19:52.643Z,96.37
2022-10-01T06:20:52.529Z,95.95
2022-10-01T06:21:52.495Z,95.86
2022-10-01T06:22:52.469Z,95.95
2022-10-01T06:23:52.426Z,95.86
2022-10-01T06:24:56.497Z,95.95
2022-10-01T06:25:52.430Z,95.34
2022-10-01T06:26:52.323Z,95.75
2022-10-01T06:27:52.309Z,95.65
2022-10-01T06:28:52.262Z,95.40
2022-10-01T06:29:52.226Z,95.40
2022-10-01T06:30:52.197Z,95.50
2022-10-01T06:31:52.259Z,95.61
2022-10-01T06:32:52.125Z,95.29
2022-10-01T06:33:52.095Z,95.29
2022-10-01T06:34:52.057Z,95.20
2022-10-01T06:35:52.033Z,95.09
2022-10-01T06:36:51.990Z,94.99
2022-10-01T06:37:52.075Z,94.99
2022-10-01T06:38:51.927Z,94.68
2022-10-01T06:39:51.894Z,95.05
2022-10-01T06:40:51.859Z,94.37
2022-10-01T06:41:51.825Z,95.25
2022-10-01T06:42:54.874Z,94.68
2022-10-01T06:43:51.831Z,94.84
2022-10-01T06:44:51.751Z,94.74
2022-10-01T06:45:51.722Z,94.64
2022-10-01T06:46:51.657Z,94.54
2022-10-01T06:47:51.680Z,94.84
2022-10-01T06:48:51.588Z,95.15
2022-10-01T06:49:51.609Z,94.64
2022-10-01T06:50:51.527Z,94.84
2022-10-01T06:51:51.491Z,94.84
2022-10-01T06:52:51.455Z,94.54
2022-10-01T06:53:51.482Z,95.25
2022-10-01T06:54:51.392Z,94.90
2022-10-01T06:55:51.427Z,94.74
2022-10-01T06:56:51.324Z,94.90
2022-10-01T06:57:51.290Z,94.49
2022-10-01T06:58:51.261Z,94.70
2022-10-01T06:59:51.225Z,94.29
2022-10-01T07:00:51.233Z,94.08
2022-10-01T07:01:56.042Z,93.67
2022-10-01T07:02:51.213Z,93.98
2022-10-01T07:03:51.095Z,93.67
2022-10-01T07:04:51.059Z,93.73
2022-10-01T07:05:51.092Z,93.84
2022-10-01T07:06:50.992Z,93.32
2022-10-01T07:07:50.957Z,93.01
2022-10-01T07:08:50.927Z,92.91
2022-10-01T07:09:50.897Z,92.60
2022-10-01T07:10:50.916Z,92.50
2022-10-01T07:11:50.832Z,92.81
2022-10-01T07:12:50.795Z,92.56
2022-10-01T07:13:54.375Z,92.77
2022-10-01T07:14:50.787Z,92.83
2022-10-01T07:15:50.751Z,92.56
2022-10-01T07:16:50.745Z,92.93
2022-10-01T07:17:50.629Z,93.03
2022-10-01T07:18:50.616Z,92.01
2022-10-01T07:19:50.562Z,92.17
2022-10-01T07:20:50.590Z,91.46
2022-10-01T07:21:50.495Z,91.66
2022-10-01T07:22:50.467Z,91.66
2022-10-01T07:23:50.445Z,91.05
2022-10-01T07:24:50.394Z,91.31
2022-10-01T07:25:50.369Z,90.59
2022-10-01T07:26:50.389Z,91.11
2022-10-01T07:27:50.356Z,90.29
2022-10-01T07:28:50.270Z,91.11
2022-10-01T07:29:50.231Z,89.98
2022-10-01T07:30:50.199Z,90.25
2022-10-01T07:31:50.254Z,90.75
2022-10-01T07:32:50.139Z,89.84
2022-10-01T07:33:50.104Z,90.41
2022-10-01T07:34:50.071Z,90.41
2022-10-01T07:35:50.045Z,89.69
2022-10-01T07:36:50.067Z,89.79
2022-10-01T07:37:49.975Z,89.75
2022-10-01T07:38:49.947Z,88.78
2022-10-01T07:39:49.914Z,88.67
2022-10-01T07:40:49.880Z,88.93
2022-10-01T07:41:49.907Z,89.59
2022-10-01T07:42:49.828Z,89.14
2022-10-01T07:43:49.782Z,88.78
2022-10-01T07:44:49.752Z,88.73
2022-10-01T07:45:49.765Z,88.73
2022-10-01T07:46:49.742Z,88.02
2022-10-01T07:47:49.656Z,87.71
2022-10-01T07:48:49.631Z,87.82
2022-10-01T07:49:49.591Z,87.92
2022-10-01T07:50:49.581Z,88.02
2022-10-01T07:51:49.586Z,88.22
2022-10-01T07:52:49.496Z,87.06
2022-10-01T07:53:49.462Z,87.57
2022-10-01T07:54:49.531Z,87.26
2022-10-01T07:55:49.402Z,87.57
2022-10-01T07:56:49.367Z,87.30
2022-10-01T07:57:49.405Z,87.06
2022-10-01T07:58:49.301Z,87.26
2022-10-01T07:59:53.489Z,87.57
2022-10-01T08:00:49.329Z,87.57
2022-10-01T08:01:49.340Z,86.76
2022-10-01T08:02:49.188Z,86.45
2022-10-01T08:03:49.201Z,87.02
2022-10-01T08:04:49.118Z,86.71
2022-10-01T08:05:49.092Z,87.12
2022-10-01T08:06:49.049Z,86.30
2022-10-01T08:07:49.014Z,86.51
2022-10-01T08:08:49.040Z,86.71
2022-10-01T08:09:48.958Z,86.57
2022-10-01T08:10:48.921Z,86.57
2022-10-01T08:11:48.892Z,86.57
2022-10-01T08:12:48.861Z,86.88
2022-10-01T08:13:48.836Z,86.37
2022-10-01T08:14:48.867Z,86.47
2022-10-01T08:15:48.762Z,86.16
2022-10-01T08:16:48.781Z,86.13
2022-10-01T08:17:48.702Z,85.82
2022-10-01T08:18:48.671Z,85.92
2022-10-01T08:19:48.638Z,85.72
2022-10-01T08:20:48.668Z,85.82
2022-10-01T08:21:48.610Z,85.41
2022-10-01T08:22:48.545Z,85.37
2022-10-01T08:23:48.570Z,85.21
2022-10-01T08:24:48.482Z,85.11
2022-10-01T08:25:48.451Z,85.21
2022-10-01T08:26:48.422Z,85.88
2022-10-01T08:27:48.438Z,84.86
2022-10-01T08:28:48.360Z,85.78
2022-10-01T08:29:48.388Z,85.64
2022-10-01T08:30:48.291Z,85.74
2022-10-01T08:31:48.323Z,85.43
2022-10-01T08:32:48.289Z,85.43
2022-10-01T08:33:48.199Z,85.74
2022-10-01T08:34:48.184Z,84.07
2022-10-01T08:35:48.142Z,84.52
2022-10-01T08:36:48.105Z,83.97
2022-10-01T08:37:48.141Z,84.44
2022-10-01T08:38:48.043Z,83.83
2022-10-01T08:39:48.024Z,84.03
2022-10-01T08:40:47.988Z,83.83
2022-10-01T08:41:47.969Z,83.22
2022-10-01T08:42:47.972Z,84.09
2022-10-01T08:43:47.892Z,82.81
2022-10-01T08:44:47.858Z,82.87
2022-10-01T08:45:47.882Z,82.67
2022-10-01T08:46:47.858Z,82.57
2022-10-01T08:47:47.770Z,83.65
2022-10-01T08:48:47.790Z,82.03
2022-10-01T08:49:47.710Z,82.43
2022-10-01T08:50:47.709Z,82.59
2022-10-01T08:51:47.650Z,82.50
2022-10-01T08:52:47.670Z,82.39
2022-10-01T08:53:47.643Z,82.56
2022-10-01T08:54:47.562Z,81.68
2022-10-01T08:55:47.531Z,81.88
2022-10-01T08:56:47.558Z,82.70
2022-10-01T08:57:47.464Z,82.45
2022-10-01T08:58:47.490Z,83.17
2022-10-01T08:59:47.436Z,83.37
2022-10-01T09:00:47.449Z,82.05
2022-10-01T09:01:47.349Z,83.61
2022-10-01T09:02:47.313Z,83.17
2022-10-01T09:03:47.366Z,83.71
2022-10-01T09:04:47.330Z,83.40
2022-10-01T09:05:47.219Z,83.67
2022-10-01T09:06:47.194Z,83.67
2022-10-01T09:07:47.162Z,83.47
2022-10-01T09:08:47.133Z,83.63
2022-10-01T09:09:47.171Z,83.12
2022-10-01T09:10:47.092Z,83.73
2022-10-01T09:11:47.121Z,83.73
2022-10-01T09:12:47.018Z,83.73
2022-10-01T09:13:50.252Z,83.43
2022-10-01T09:14:46.997Z,83.23
2022-10-01T09:15:46.987Z,84.04
2022-10-01T09:16:46.960Z,83.67
2022-10-01T09:17:46.878Z,83.43
2022-10-01T09:18:46.997Z,84.24
2022-10-01T09:19:47.998Z,84.08
2022-10-01T09:20:46.776Z,84.48
2022-10-01T09:21:46.841Z,84.01
2022-10-01T09:22:46.713Z,84.32
2022-10-01T09:23:46.689Z,85.68
2022-10-01T09:24:46.656Z,86.69
2022-10-01T09:25:46.628Z,86.74
2022-10-01T09:26:46.601Z,87.34
2022-10-01T09:27:46.652Z,87.45
2022-10-01T09:28:46.546Z,87.99
2022-10-01T09:29:46.506Z,86.98
2022-10-01T09:30:46.535Z,88.24
2022-10-01T09:31:46.534Z,88.04
2022-10-01T09:32:46.412Z,88.24
2022-10-01T09:33:46.392Z,88.34
2022-10-01T09:34:46.352Z,89.70
2022-10-01T09:35:46.377Z,89.40
2022-10-01T09:36:46.303Z,89.70
2022-10-01T09:37:46.268Z,89.70
2022-10-01T09:38:46.230Z,89.70
2022-10-01T09:39:46.209Z,89.91
2022-10-01T09:40:46.227Z,90.07
2022-10-01T09:41:46.146Z,89.40
2022-10-01T09:42:46.111Z,89.97
2022-10-01T09:43:46.134Z,89.26
2022-10-01T09:44:46.055Z,89.46
2022-10-01T09:45:46.082Z,88.85
2022-10-01T09:46:45.987Z,89.22
2022-10-01T09:47:46.018Z,89.72
2022-10-01T09:48:45.924Z,89.56
2022-10-01T09:49:45.899Z,89.42
2022-10-01T09:50:45.890Z,88.24
2022-10-01T09:51:45.995Z,89.26
2022-10-01T09:52:45.810Z,89.56
2022-10-01T09:53:46.084Z,89.46
2022-10-01T09:54:45.753Z,89.46
2022-10-01T09:55:45.716Z,89.76
2022-10-01T09:56:45.692Z,88.95
2022-10-01T09:57:45.711Z,89.87
2022-10-01T09:58:45.622Z,89.76
2022-10-01T09:59:45.646Z,90.27
2022-10-01T10:00:45.563Z,89.76
2022-10-01T10:01:45.658Z,89.56
2022-10-01T10:02:49.340Z,90.37
2022-10-01T10:03:45.471Z,90.37
2022-10-01T10:04:45.509Z,90.42
2022-10-01T10:05:45.458Z,91.09
2022-10-01T10:06:45.382Z,90.01
2022-10-01T10:07:45.348Z,90.62
2022-10-01T10:08:45.348Z,90.72
2022-10-01T10:09:45.333Z,91.43
2022-10-01T10:10:45.315Z,90.77
2022-10-01T10:11:45.217Z,91.38
2022-10-01T10:12:45.186Z,91.48
2022-10-01T10:13:45.166Z,92.33
2022-10-01T10:14:45.130Z,92.64
2022-10-01T10:15:45.113Z,92.94
2022-10-01T10:16:45.122Z,93.15
2022-10-01T10:17:45.035Z,93.55
2022-10-01T10:18:45.002Z,94.27
2022-10-01T10:19:44.973Z,93.76
2022-10-01T10:20:44.941Z,94.68
2022-10-01T10:21:44.910Z,94.37
2022-10-01T10:22:44.945Z,93.96
2022-10-01T10:23:44.851Z,94.07
2022-10-01T10:24:44.816Z,94.27
2022-10-01T10:25:44.786Z,93.90
2022-10-01T10:26:44.756Z,95.23
2022-10-01T10:27:44.749Z,95.13
2022-10-01T10:28:44.850Z,95.03
2022-10-01T10:29:44.660Z,95.33
2022-10-01T10:30:44.627Z,95.74
2022-10-01T10:31:44.690Z,95.84
2022-10-01T10:32:44.617Z,95.08
2022-10-01T10:33:44.536Z,95.49
2022-10-01T10:34:44.504Z,95.69
2022-10-01T10:35:44.475Z,95.79
2022-10-01T10:36:44.438Z,95.59
2022-10-01T10:37:44.466Z,95.13
2022-10-01T10:38:44.890Z,95.18
2022-10-01T10:39:44.343Z,94.68
2022-10-01T10:40:44.363Z,94.07
2022-10-01T10:41:44.287Z,94.32
2022-10-01T10:42:44.329Z,94.68
2022-10-01T10:43:44.215Z,94.47
2022-10-01T10:44:44.185Z,94.93
2022-10-01T10:45:44.158Z,93.76
2022-10-01T10:46:46.165Z,94.47
2022-10-01T10:47:44.149Z,94.12
2022-10-01T10:48:44.077Z,94.57
2022-10-01T10:49:44.032Z,94.43
2022-10-01T10:50:44.010Z,94.27
2022-10-01T10:51:43.965Z,94.07
2022-10-01T10:52:45.799Z,94.88
2022-10-01T10:53:43.977Z,94.62
2022-10-01T10:54:43.871Z,95.08
2022-10-01T10:55:43.844Z,94.88
2022-10-01T10:56:43.813Z,95.59
2022-10-01T10:57:43.847Z,95.18
2022-10-01T10:58:43.827Z,95.79
2022-10-01T10:59:43.715Z,95.23
2022-10-01T11:00:43.685Z,95.69
2022-10-01T11:01:43.765Z,95.79
2022-10-01T11:02:43.699Z,94.72
2022-10-01T11:03:43.643Z,94.82
2022-10-01T11:04:43.556Z,94.78
2022-10-01T11:05:43.537Z,95.59
2022-10-01T11:06:43.498Z,95.18
2022-10-01T11:07:43.465Z,95.79
2022-10-01T11:08:43.503Z,94.84
2022-10-01T11:09:43.409Z,93.82
2022-10-01T11:10:43.378Z,93.71
2022-10-01T11:11:43.338Z,94.53
2022-10-01T11:12:43.316Z,93.71
2022-10-01T11:13:43.273Z,93.76
2022-10-01T11:14:43.308Z,94.23
2022-10-01T11:15:43.337Z,94.12
2022-10-01T11:16:43.191Z,94.32
2022-10-01T11:17:43.226Z,94.47
2022-10-01T11:18:43.130Z,93.86
2022-10-01T11:19:43.092Z,94.23
2022-10-01T11:20:43.062Z,94.57
2022-10-01T11:21:43.028Z,94.78
2022-10-01T11:22:43.033Z,94.63
2022-10-01T11:23:43.036Z,94.53
2022-10-01T11:24:42.941Z,95.08
2022-10-01T11:25:42.903Z,94.53
2022-10-01T11:26:42.875Z,94.78
2022-10-01T11:27:42.856Z,94.57
2022-10-01T11:28:42.865Z,94.27
2022-10-01T11:29:42.779Z,94.68
2022-10-01T11:30:42.750Z,94.42
2022-10-01T11:31:42.764Z,94.07
2022-10-01T11:32:42.687Z,94.27
2022-10-01T11:33:42.890Z,94.37
2022-10-01T11:34:42.625Z,94.63
2022-10-01T11:35:42.590Z,94.27
2022-10-01T11:36:42.560Z,93.86
2022-10-01T11:37:42.527Z,93.86
2022-10-01T11:38:42.578Z,94.37
2022-10-01T11:39:42.475Z,94.31
2022-10-01T11:40:42.435Z,94.27
2022-10-01T11:41:42.407Z,94.31
2022-10-01T11:42:42.377Z,94.57
2022-10-01T11:43:42.388Z,94.27
2022-10-01T11:44:42.310Z,93.25
2022-10-01T11:45:42.280Z,94.07
2022-10-01T11:46:42.449Z,93.35
2022-10-01T11:47:42.217Z,94.07
2022-10-01T11:48:42.183Z,94.07
2022-10-01T11:49:42.161Z,94.37
2022-10-01T11:50:42.122Z,94.27
2022-10-01T11:51:42.092Z,95.18
2022-10-01T11:52:42.120Z,94.98
2022-10-01T11:53:42.028Z,94.92
2022-10-01T11:54:41.999Z,95.13
2022-10-01T11:55:41.965Z,95.74
2022-10-01T11:56:41.934Z,95.13
2022-10-01T11:57:41.951Z,94.82
2022-10-01T11:58:41.926Z,95.33
2022-10-01T11:59:41.845Z,95.23
2022-10-01T12:00:41.807Z,95.43
2022-10-01T12:01:41.794Z,95.33
2022-10-01T12:02:41.779Z,95.94
2022-10-01T12:03:41.717Z,95.94
2022-10-01T12:04:41.738Z,96.45
2022-10-01T12:05:41.765Z,96.80
2022-10-01T12:06:41.965Z,97.21
2022-10-01T12:07:41.657Z,97.82
2022-10-01T12:08:41.553Z,98.43
2022-10-01T12:09:41.519Z,98.54
2022-10-01T12:10:41.490Z,99.04
2022-10-01T12:11:41.463Z,98.74
2022-10-01T12:12:41.425Z,99.04
2022-10-01T12:13:41.451Z,99.04
2022-10-01T12:14:41.359Z,98.68
2022-10-01T12:15:41.389Z,98.94
2022-10-01T12:16:41.462Z,99.45
2022-10-01T12:17:41.313Z,98.94
2022-10-01T12:18:41.231Z,98.68
2022-10-01T12:19:41.201Z,98.99
2022-10-01T12:20:41.196Z,99.70
2022-10-01T12:21:41.140Z,99.29
2022-10-01T12:22:41.163Z,99.70
2022-10-01T12:23:41.079Z,99.19
2022-10-01T12:24:41.049Z,99.40
2022-10-01T12:25:41.012Z,99.29
2022-10-01T12:26:40.986Z,99.60
2022-10-01T12:27:40.947Z,99.25
2022-10-01T12:28:40.972Z,98.84
2022-10-01T12:29:40.894Z,99.15
2022-10-01T12:30:40.852Z,99.04
2022-10-01T12:31:40.879Z,98.74
2022-10-01T12:32:40.787Z,98.84
2022-10-01T12:33:40.755Z,98.43
2022-10-01T12:34:40.780Z,98.43
2022-10-01T12:35:40.693Z,98.33
2022-10-01T12:36:40.661Z,98.43
2022-10-01T12:37:40.634Z,97.82
2022-10-01T12:38:40.594Z,97.82
2022-10-01T12:39:40.569Z,98.43
2022-10-01T12:40:40.743Z,97.92
2022-10-01T12:41:40.504Z,98.18
2022-10-01T12:42:40.468Z,97.78
2022-10-01T12:43:40.435Z,97.02
2022-10-01T12:44:40.403Z,97.53
2022-10-01T12:45:40.371Z,96.66
2022-10-01T12:46:40.507Z,97.63
2022-10-01T12:47:40.310Z,97.57
2022-10-01T12:48:40.283Z,97.22
2022-10-01T12:49:40.251Z,97.47
2022-10-01T12:50:40.221Z,97.02
2022-10-01T12:51:40.187Z,97.16